Time;durP1;ratioP1;P1;durP2;ratioP2;P2;SDS_P1;SDS_P2;PMS_P1;PMS_P2;Temp;Humidity;BMP_temperature;BMP_pressure;BME280_temperature;BME280_humidity;BME280_pressure;Samples;Min_cycle;Max_cycle;Signal;HPM_P1;HPM_P2
2021/11/04 00:00:22;;;;;;;0.90;0.68;;;6.60;99.90;;;;;;5052970;28;20181;-65
2021/11/04 00:02:51;;;;;;;1.98;1.63;;;6.60;99.90;;;;;;5034313;28;20221;-65
2021/11/04 00:05:20;;;;;;;0.80;0.60;;;6.60;99.90;;;;;;5032578;28;20201;-65
2021/11/04 00:07:52;;;;;;;2.22;1.70;;;6.60;99.90;;;;;;5014319;28;20225;-65
2021/11/04 00:10:21;;;;;;;1.90;0.93;;;6.60;99.90;;;;;;5032244;28;20291;-65
2021/11/04 00:12:50;;;;;;;2.25;1.45;;;6.60;99.90;;;;;;5014436;28;20263;-65
2021/11/04 00:15:18;;;;;;;1.38;0.80;;;6.60;99.90;;;;;;5032389;28;20178;-65
2021/11/04 00:17:46;;;;;;;0.90;0.60;;;6.60;99.90;;;;;;5032235;28;20181;-65
2021/11/04 00:20:17;;;;;;;1.33;1.10;;;6.60;99.90;;;;;;5032386;28;20532;-65
2021/11/04 00:22:47;;;;;;;0.80;0.50;;;6.60;99.90;;;;;;5032016;28;20206;-65
2021/11/04 00:25:17;;;;;;;3.72;1.48;;;6.60;99.90;;;;;;5032064;28;20265;-65
2021/11/04 00:27:46;;;;;;;0.90;0.70;;;6.50;99.90;;;;;;5032154;28;20231;-66
2021/11/04 00:30:15;;;;;;;0.90;0.75;;;6.50;99.90;;;;;;5032525;28;20259;-64
2021/11/04 00:32:49;;;;;;;1.55;1.23;;;6.50;99.90;;;;;;5032404;28;20213;-65
2021/11/04 00:35:17;;;;;;;0.80;0.60;;;6.40;99.90;;;;;;5032397;28;20180;-64
2021/11/04 00:37:48;;;;;;;1.00;0.70;;;6.40;99.90;;;;;;5032065;28;20185;-63
2021/11/04 00:40:20;;;;;;;2.08;1.90;;;6.40;99.90;;;;;;5031965;28;20369;-64
2021/11/04 00:42:48;;;;;;;1.13;0.85;;;6.30;99.90;;;;;;5032182;28;20295;-64
2021/11/04 00:45:17;;;;;;;2.33;1.65;;;6.40;99.90;;;;;;5032571;28;20594;-64
2021/11/04 00:47:45;;;;;;;1.00;0.90;;;6.40;99.90;;;;;;5032906;28;20576;-65
2021/11/04 00:50:13;;;;;;;1.05;0.95;;;6.40;99.90;;;;;;5033171;28;20189;-64
2021/11/04 00:52:41;;;;;;;0.90;0.80;;;6.40;99.90;;;;;;5032077;28;20236;-66
2021/11/04 00:55:11;;;;;;;1.02;0.88;;;6.40;99.90;;;;;;5031981;28;20630;-65
2021/11/04 00:57:40;;;;;;;1.45;1.35;;;6.30;99.90;;;;;;5013786;28;20231;-65
2021/11/04 01:00:11;;;;;;;1.50;1.25;;;6.30;99.90;;;;;;5031832;28;20170;-65
2021/11/04 01:02:40;;;;;;;1.00;0.70;;;6.30;99.90;;;;;;5031540;28;20209;-66
2021/11/04 01:05:09;;;;;;;0.80;0.70;;;6.30;99.90;;;;;;5031418;28;20199;-65
2021/11/04 01:07:37;;;;;;;1.00;0.70;;;6.30;99.90;;;;;;5031714;28;20204;-65
2021/11/04 01:10:07;;;;;;;1.88;1.45;;;6.30;99.90;;;;;;5031651;28;20693;-65
2021/11/04 01:12:36;;;;;;;1.27;0.93;;;6.30;99.90;;;;;;5031261;28;20209;-62
2021/11/04 01:15:07;;;;;;;1.48;0.82;;;6.30;99.90;;;;;;5031631;28;20174;-65
2021/11/04 01:17:35;;;;;;;0.90;0.75;;;6.30;99.90;;;;;;5031684;28;20646;-65
2021/11/04 01:20:05;;;;;;;1.15;0.95;;;6.30;99.90;;;;;;5031461;28;20264;-65
2021/11/04 01:22:33;;;;;;;4.00;1.40;;;6.30;99.90;;;;;;5031624;28;20263;-66
2021/11/04 01:25:01;;;;;;;1.10;1.00;;;6.30;99.90;;;;;;5031927;28;20182;-67
2021/11/04 01:27:30;;;;;;;1.23;0.85;;;6.30;99.90;;;;;;5031645;28;20701;-66
2021/11/04 01:29:59;;;;;;;1.45;1.30;;;6.30;99.90;;;;;;5031808;28;20184;-65
2021/11/04 01:32:28;;;;;;;4.40;2.20;;;6.30;99.90;;;;;;5031448;28;20209;-66
2021/11/04 01:34:56;;;;;;;1.00;0.60;;;6.30;99.90;;;;;;5031385;28;20196;-66
2021/11/04 01:37:24;;;;;;;0.80;0.50;;;6.20;99.90;;;;;;5031405;28;20178;-65
2021/11/04 01:39:52;;;;;;;2.05;1.88;;;6.20;99.90;;;;;;5031542;28;20205;-65
2021/11/04 01:42:21;;;;;;;0.85;0.70;;;6.20;99.90;;;;;;5014018;28;20213;-65
2021/11/04 01:44:49;;;;;;;1.42;1.33;;;6.20;99.90;;;;;;5031691;28;20169;-66
2021/11/04 01:47:19;;;;;;;1.10;1.00;;;6.20;99.90;;;;;;5031068;28;20201;-66
2021/11/04 01:49:47;;;;;;;3.45;1.27;;;6.30;99.90;;;;;;5031452;28;20170;-64
2021/11/04 01:52:15;;;;;;;1.10;1.00;;;6.20;99.90;;;;;;5031286;28;20202;-65
2021/11/04 01:54:44;;;;;;;1.10;0.85;;;6.30;99.90;;;;;;5031259;28;20190;-65
2021/11/04 01:57:13;;;;;;;0.93;0.82;;;6.30;99.90;;;;;;5031237;28;20184;-65
2021/11/04 01:59:41;;;;;;;1.75;1.65;;;6.20;99.90;;;;;;5031472;28;20236;-65
2021/11/04 02:02:17;;;;;;;1.00;0.90;;;6.20;99.90;;;;;;5030983;28;20220;-64
2021/11/04 02:04:52;;;;;;;1.80;1.23;;;6.20;99.90;;;;;;5032111;28;20185;-66
2021/11/04 02:07:28;;;;;;;1.27;1.10;;;6.20;99.90;;;;;;5034575;28;20285;-65
2021/11/04 02:10:04;;;;;;;0.90;0.77;;;6.20;99.90;;;;;;5016908;28;20227;-65
2021/11/04 02:12:37;;;;;;;1.35;1.25;;;6.20;99.90;;;;;;5034615;28;20213;-65
2021/11/04 02:15:06;;;;;;;4.47;3.80;;;6.20;99.90;;;;;;5034720;28;20178;-66
2021/11/04 02:17:36;;;;;;;1.88;1.05;;;6.10;99.90;;;;;;5034662;28;20181;-66
2021/11/04 02:20:07;;;;;;;1.75;1.25;;;6.10;99.90;;;;;;5034548;28;20585;-66
2021/11/04 02:22:47;;;;;;;0.80;0.50;;;6.00;99.90;;;;;;5034687;28;20211;-67
2021/11/04 02:25:19;;;;;;;2.67;1.13;;;6.00;99.90;;;;;;5035383;28;20178;-66
2021/11/04 02:27:51;;;;;;;1.00;0.82;;;6.00;99.90;;;;;;5035392;28;20236;-65
2021/11/04 02:30:21;;;;;;;1.63;1.48;;;5.90;99.90;;;;;;5035091;28;20181;-65
2021/11/04 02:32:51;;;;;;;2.78;2.58;;;5.90;99.90;;;;;;5034925;28;20777;-65
2021/11/04 02:35:20;;;;;;;0.80;0.70;;;5.90;99.90;;;;;;5034328;28;20200;-63
2021/11/04 02:37:51;;;;;;;0.80;0.60;;;5.90;99.90;;;;;;5033930;28;20193;-65
2021/11/04 02:40:22;;;;;;;1.83;1.55;;;5.90;99.90;;;;;;5016412;28;20201;-64
2021/11/04 02:42:50;;;;;;;1.33;0.85;;;5.90;99.90;;;;;;5034157;28;20220;-64
2021/11/04 02:45:20;;;;;;;0.90;0.60;;;5.80;99.90;;;;;;5034039;28;20232;-66
2021/11/04 02:47:49;;;;;;;2.65;2.45;;;5.80;99.90;;;;;;5033801;28;20201;-66
2021/11/04 02:50:19;;;;;;;4.70;3.05;;;5.80;99.90;;;;;;5033813;28;20176;-64
2021/11/04 02:52:47;;;;;;;1.58;1.45;;;5.90;99.90;;;;;;5033825;28;20213;-66
2021/11/04 02:55:15;;;;;;;1.77;1.00;;;5.90;99.90;;;;;;5033605;28;20201;-65
2021/11/04 02:57:46;;;;;;;2.13;1.33;;;5.90;99.90;;;;;;5033759;28;20197;-64
2021/11/04 03:00:17;;;;;;;2.55;1.60;;;5.90;99.90;;;;;;5033797;28;20192;-66
2021/11/04 03:02:45;;;;;;;2.65;2.20;;;5.90;99.90;;;;;;5033511;28;20209;-64
2021/11/04 03:05:14;;;;;;;1.70;1.00;;;5.90;99.90;;;;;;5033747;28;20185;-66
2021/11/04 03:07:42;;;;;;;1.00;0.90;;;5.90;99.90;;;;;;5033801;28;20259;-65
2021/11/04 03:10:10;;;;;;;3.88;2.33;;;5.90;99.90;;;;;;5033889;28;20177;-66
2021/11/04 03:12:38;;;;;;;1.15;1.05;;;5.90;99.90;;;;;;5033665;28;20228;-65
2021/11/04 03:15:12;;;;;;;0.90;0.60;;;5.90;99.90;;;;;;5033422;28;20634;-66
2021/11/04 03:17:41;;;;;;;1.83;1.40;;;5.90;99.90;;;;;;5033479;28;20173;-66
2021/11/04 03:20:11;;;;;;;1.95;1.85;;;5.90;99.90;;;;;;5033527;28;20634;-64
2021/11/04 03:22:41;;;;;;;1.55;1.45;;;6.00;99.90;;;;;;5033623;28;20681;-66
2021/11/04 03:25:10;;;;;;;1.50;1.25;;;6.00;99.90;;;;;;5033726;28;20184;-66
2021/11/04 03:27:40;;;;;;;4.85;4.28;;;6.00;99.90;;;;;;5033418;28;20205;-65
2021/11/04 03:30:11;;;;;;;2.55;1.40;;;6.00;99.90;;;;;;5033477;28;20185;-65
2021/11/04 03:32:40;;;;;;;0.95;0.85;;;6.10;99.90;;;;;;5034499;28;20635;-65
2021/11/04 03:35:11;;;;;;;3.40;3.10;;;6.10;99.90;;;;;;5034552;28;20344;-65
2021/11/04 03:37:42;;;;;;;2.00;1.90;;;6.10;99.90;;;;;;5034886;28;20181;-64
2021/11/04 03:40:11;;;;;;;2.25;2.05;;;6.00;99.90;;;;;;5034789;28;20169;-65
2021/11/04 03:42:41;;;;;;;1.48;1.38;;;6.10;99.90;;;;;;5034228;28;20271;-64
2021/11/04 03:45:13;;;;;;;0.90;0.63;;;6.10;99.90;;;;;;5033544;28;20182;-64
2021/11/04 03:47:43;;;;;;;0.90;0.80;;;6.10;99.90;;;;;;5033465;28;20174;-64
2021/11/04 03:50:12;;;;;;;6.68;2.03;;;6.10;99.90;;;;;;5033308;28;20189;-65
2021/11/04 03:52:41;;;;;;;1.05;0.95;;;6.20;99.90;;;;;;5034145;28;20213;-66
2021/11/04 03:55:11;;;;;;;2.38;1.20;;;6.10;99.90;;;;;;5034012;28;20189;-66
2021/11/04 03:57:41;;;;;;;2.45;1.20;;;6.20;99.90;;;;;;5034416;28;20194;-66
2021/11/04 04:00:12;;;;;;;2.10;1.90;;;6.10;99.90;;;;;;5034070;28;20194;-66
2021/11/04 04:02:44;;;;;;;4.93;1.33;;;6.10;99.90;;;;;;5034301;28;20217;-65
2021/11/04 04:05:12;;;;;;;1.35;1.25;;;6.10;99.90;;;;;;5034397;28;20541;-66
2021/11/04 04:07:41;;;;;;;3.00;2.03;;;6.10;99.90;;;;;;5034693;28;20174;-66
2021/11/04 04:10:10;;;;;;;7.13;1.50;;;6.20;99.90;;;;;;5034111;28;20196;-65
2021/11/04 04:12:38;;;;;;;2.67;2.45;;;6.10;99.90;;;;;;5033442;28;20213;-65
2021/11/04 04:15:06;;;;;;;3.38;2.05;;;6.10;99.90;;;;;;5033101;28;20256;-66
2021/11/04 04:17:36;;;;;;;1.77;1.67;;;6.00;99.90;;;;;;5033170;28;20545;-64
2021/11/04 04:20:05;;;;;;;1.98;1.60;;;6.10;99.90;;;;;;5032613;28;20177;-65
2021/11/04 04:22:34;;;;;;;4.72;2.35;;;6.00;99.90;;;;;;5032864;28;20210;-66
2021/11/04 04:25:03;;;;;;;0.90;0.80;;;6.10;99.90;;;;;;5032916;28;20181;-66
2021/11/04 04:27:31;;;;;;;1.40;1.27;;;6.10;99.90;;;;;;5032039;28;20193;-64
2021/11/04 04:29:59;;;;;;;5.25;1.80;;;6.10;99.90;;;;;;5032784;28;20205;-66
2021/11/04 04:32:28;;;;;;;5.90;2.20;;;6.10;99.90;;;;;;5054693;22;20271;-65
2021/11/04 04:34:58;;;;;;;3.33;1.95;;;6.00;99.90;;;;;;5072540;28;20644;-65
2021/11/04 04:37:26;;;;;;;1.45;1.35;;;6.10;99.90;;;;;;5071696;28;20188;-64
2021/11/04 04:39:54;;;;;;;1.27;0.95;;;6.10;99.90;;;;;;5087609;28;20182;-64
2021/11/04 04:42:22;;;;;;;1.70;1.60;;;6.10;99.90;;;;;;5071644;28;20257;-66
2021/11/04 04:44:51;;;;;;;8.05;1.40;;;6.00;99.90;;;;;;5071651;28;20241;-62
2021/11/04 04:47:19;;;;;;;2.95;2.05;;;6.10;99.90;;;;;;5071484;28;20187;-66
2021/11/04 04:49:48;;;;;;;1.33;1.23;;;6.10;99.90;;;;;;5071519;28;20230;-65
2021/11/04 04:52:18;;;;;;;1.77;0.80;;;6.10;99.90;;;;;;5071209;28;20208;-65
2021/11/04 04:54:46;;;;;;;1.73;1.55;;;6.10;99.90;;;;;;5071908;28;20640;-65
2021/11/04 04:57:21;;;;;;;3.85;3.42;;;6.10;99.90;;;;;;5071647;28;20695;-65
2021/11/04 04:59:50;;;;;;;0.88;0.68;;;6.10;99.90;;;;;;5071715;28;20630;-65
2021/11/04 05:02:18;;;;;;;1.20;0.95;;;6.20;99.90;;;;;;5071282;28;20276;-64
2021/11/04 05:04:47;;;;;;;3.92;3.42;;;6.20;99.90;;;;;;5071415;28;20188;-65
2021/11/04 05:07:15;;;;;;;0.98;0.82;;;6.10;99.90;;;;;;5071229;28;20184;-65
2021/11/04 05:09:45;;;;;;;1.65;1.55;;;6.10;99.90;;;;;;5071266;28;20216;-65
2021/11/04 05:12:13;;;;;;;5.88;2.70;;;6.20;99.90;;;;;;5071410;28;20211;-64
2021/11/04 05:14:41;;;;;;;1.35;1.13;;;6.20;99.90;;;;;;5071484;28;20176;-63
2021/11/04 05:17:09;;;;;;;3.85;1.48;;;6.30;99.90;;;;;;5071785;28;20267;-64
2021/11/04 05:19:37;;;;;;;2.97;2.78;;;6.40;99.90;;;;;;5072131;28;20195;-65
2021/11/04 05:22:05;;;;;;;8.43;1.98;;;6.40;99.90;;;;;;5070207;28;20212;-63
2021/11/04 05:24:35;;;;;;;11.43;4.72;;;6.30;99.90;;;;;;5071269;28;20222;-66
2021/11/04 05:27:06;;;;;;;1.65;1.55;;;6.40;99.90;;;;;;5071147;28;20195;-64
2021/11/04 05:29:35;;;;;;;1.38;1.27;;;6.30;99.90;;;;;;5071314;28;20203;-63
2021/11/04 05:32:06;;;;;;;1.02;0.75;;;6.30;99.90;;;;;;5070835;28;20649;-66
2021/11/04 05:34:35;;;;;;;1.40;1.08;;;6.30;99.90;;;;;;5071424;28;20247;-64
2021/11/04 05:37:04;;;;;;;4.53;1.80;;;6.30;99.90;;;;;;5071016;28;20645;-65
2021/11/04 05:39:32;;;;;;;1.85;1.55;;;6.30;99.90;;;;;;5074089;28;20173;-66
2021/11/04 05:42:00;;;;;;;2.03;1.92;;;6.40;99.90;;;;;;5075886;28;20640;-65
2021/11/04 05:44:30;;;;;;;2.45;2.35;;;6.40;99.90;;;;;;5074481;28;20759;-64
2021/11/04 05:46:59;;;;;;;3.00;1.45;;;6.40;99.90;;;;;;5074317;28;20379;-65
2021/11/04 05:49:27;;;;;;;1.75;1.50;;;6.40;99.90;;;;;;5073738;28;20204;-64
2021/11/04 05:51:55;;;;;;;1.20;0.85;;;6.40;99.90;;;;;;5074654;28;20183;-66
2021/11/04 05:54:23;;;;;;;1.55;1.45;;;6.40;99.90;;;;;;5074873;28;20234;-65
2021/11/04 05:56:51;;;;;;;5.25;2.10;;;6.40;99.90;;;;;;5074578;28;20176;-65
2021/11/04 05:59:19;;;;;;;2.20;2.00;;;6.40;99.90;;;;;;5075114;28;20184;-67
2021/11/04 06:01:49;;;;;;;1.90;1.60;;;6.40;99.90;;;;;;5074802;28;20184;-65
2021/11/04 06:04:17;;;;;;;2.50;2.40;;;6.30;99.90;;;;;;5073158;28;20192;-65
2021/11/04 06:06:45;;;;;;;12.25;2.22;;;6.30;99.90;;;;;;5074405;28;20183;-65
2021/11/04 06:09:13;;;;;;;3.92;2.90;;;6.20;99.90;;;;;;5074777;28;20406;-64
2021/11/04 06:11:41;;;;;;;3.60;3.40;;;6.20;99.90;;;;;;5075056;28;20275;-65
2021/11/04 06:14:10;;;;;;;1.38;0.70;;;6.20;99.90;;;;;;5074521;28;20188;-65
2021/11/04 06:16:38;;;;;;;1.15;0.95;;;6.20;99.90;;;;;;5074519;28;20649;-64
2021/11/04 06:19:07;;;;;;;0.90;0.70;;;6.20;99.90;;;;;;5075065;28;20234;-65
2021/11/04 06:21:35;;;;;;;2.50;1.90;;;6.20;99.90;;;;;;5074486;28;20572;-63
2021/11/04 06:24:04;;;;;;;3.67;3.38;;;6.20;99.90;;;;;;5074077;28;20230;-64
2021/11/04 06:26:32;;;;;;;3.42;3.13;;;6.20;99.90;;;;;;5074103;28;20169;-64
2021/11/04 06:29:00;;;;;;;2.53;2.33;;;6.30;99.90;;;;;;5074178;28;20184;-65
2021/11/04 06:31:29;;;;;;;1.75;1.65;;;6.30;99.90;;;;;;5074212;28;20181;-65
2021/11/04 06:33:57;;;;;;;7.28;3.08;;;6.30;99.90;;;;;;5073999;28;20212;-63
2021/11/04 06:36:26;;;;;;;2.72;1.88;;;6.30;99.90;;;;;;5074102;28;20192;-64
2021/11/04 06:38:54;;;;;;;1.83;1.73;;;6.30;99.90;;;;;;5073540;28;20173;-64
2021/11/04 06:41:23;;;;;;;1.45;1.33;;;6.30;99.90;;;;;;5073311;28;20172;-66
2021/11/04 06:43:51;;;;;;;1.30;1.20;;;6.30;99.90;;;;;;5072894;28;20204;-65
2021/11/04 06:46:24;;;;;;;5.80;2.25;;;6.30;99.90;;;;;;5073585;28;20652;-64
2021/11/04 06:48:59;;;;;;;0.90;0.68;;;6.30;99.90;;;;;;5074054;28;20195;-65
2021/11/04 06:51:31;;;;;;;2.30;1.00;;;6.30;99.90;;;;;;5073006;28;20285;-66
2021/11/04 06:54:03;;;;;;;6.57;1.15;;;6.40;99.90;;;;;;5073544;28;20230;-65
2021/11/04 06:56:40;;;;;;;2.45;1.13;;;6.40;99.90;;;;;;5073410;28;20168;-64
2021/11/04 06:59:17;;;;;;;1.63;1.52;;;6.50;99.90;;;;;;5073336;28;20176;-65
2021/11/04 07:01:54;;;;;;;3.60;2.78;;;6.40;99.90;;;;;;5073316;28;20188;-64
2021/11/04 07:04:30;;;;;;;1.50;1.40;;;6.40;99.90;;;;;;5072162;28;20219;-63
2021/11/04 07:07:06;;;;;;;1.95;1.70;;;6.40;99.90;;;;;;5073433;28;20207;-64
2021/11/04 07:09:36;;;;;;;2.42;2.22;;;6.40;99.90;;;;;;5073551;28;20176;-64
2021/11/04 07:12:07;;;;;;;2.95;2.75;;;6.40;99.90;;;;;;5072507;28;20212;-66
2021/11/04 07:14:37;;;;;;;2.13;1.38;;;6.40;99.90;;;;;;5073355;28;20168;-65
2021/11/04 07:17:08;;;;;;;0.85;0.70;;;6.50;99.90;;;;;;5072952;28;20195;-65
2021/11/04 07:19:36;;;;;;;7.03;2.45;;;6.50;99.90;;;;;;5073443;28;20188;-65
2021/11/04 07:22:20;;;;;;;1.45;0.80;;;6.50;99.90;;;;;;5072923;28;20208;-65
2021/11/04 07:24:53;;;;;;;4.90;3.90;;;6.50;99.90;;;;;;5073127;28;20574;-65
2021/11/04 07:27:32;;;;;;;1.35;1.17;;;6.50;99.90;;;;;;5073186;28;20196;-64
2021/11/04 07:30:05;;;;;;;2.47;2.25;;;6.50;99.90;;;;;;5072813;28;20210;-65
2021/11/04 07:32:33;;;;;;;3.17;2.97;;;6.50;99.90;;;;;;5072722;28;20217;-65
2021/11/04 07:35:02;;;;;;;2.08;1.60;;;6.50;99.90;;;;;;5073100;28;20184;-64
2021/11/04 07:37:33;;;;;;;6.68;2.20;;;6.50;99.90;;;;;;5072565;28;20177;-65
2021/11/04 07:40:01;;;;;;;1.52;1.42;;;6.50;99.90;;;;;;5072814;28;20221;-65
2021/11/04 07:42:29;;;;;;;9.85;4.25;;;6.50;99.90;;;;;;5072334;28;20723;-65
2021/11/04 07:44:58;;;;;;;2.45;1.05;;;6.50;99.90;;;;;;5072595;28;20199;-64
2021/11/04 07:47:26;;;;;;;2.65;1.40;;;6.50;99.90;;;;;;5072441;28;20196;-65
2021/11/04 07:49:54;;;;;;;1.08;0.98;;;6.50;99.90;;;;;;5072546;28;20210;-65
2021/11/04 07:52:22;;;;;;;4.82;1.52;;;6.50;99.90;;;;;;5073577;28;20204;-65
2021/11/04 07:54:52;;;;;;;4.13;2.35;;;6.60;99.90;;;;;;5072771;28;20223;-64
2021/11/04 07:57:20;;;;;;;5.38;3.55;;;6.50;99.90;;;;;;5073104;28;20184;-64
2021/11/04 07:59:48;;;;;;;6.78;2.05;;;6.40;99.90;;;;;;5072641;28;20545;-65
2021/11/04 08:02:16;;;;;;;5.15;2.70;;;6.50;99.90;;;;;;5071710;28;20261;-64
2021/11/04 08:04:48;;;;;;;2.20;1.60;;;6.50;99.90;;;;;;5072881;28;20184;-65
2021/11/04 08:07:16;;;;;;;1.27;1.17;;;6.50;99.90;;;;;;5072520;28;20192;-64
2021/11/04 08:09:44;;;;;;;1.55;1.23;;;6.50;99.90;;;;;;5072956;28;20194;-65
2021/11/04 08:12:14;;;;;;;5.68;3.40;;;6.50;99.90;;;;;;5073002;28;20307;-65
2021/11/04 08:14:42;;;;;;;1.48;1.38;;;6.50;99.90;;;;;;5070406;28;20594;-65
2021/11/04 08:17:10;;;;;;;3.67;2.40;;;6.50;99.90;;;;;;5070061;28;20191;-65
2021/11/04 08:19:38;;;;;;;4.65;3.47;;;6.50;99.90;;;;;;5069775;28;20245;-65
2021/11/04 08:22:07;;;;;;;15.20;2.00;;;6.40;99.90;;;;;;5072214;28;20672;-65
2021/11/04 08:24:35;;;;;;;1.27;1.17;;;6.40;99.90;;;;;;5072521;28;20586;-65
2021/11/04 08:27:03;;;;;;;3.42;3.13;;;6.50;99.90;;;;;;5071891;28;20202;-65
2021/11/04 08:29:33;;;;;;;1.67;1.58;;;6.40;99.90;;;;;;5072134;28;20702;-67
2021/11/04 08:32:01;;;;;;;0.93;0.80;;;6.50;99.90;;;;;;5072697;28;20200;-67
2021/11/04 08:34:29;;;;;;;1.80;0.80;;;6.40;99.90;;;;;;5073216;28;20270;-64
2021/11/04 08:36:57;;;;;;;5.25;1.88;;;6.40;99.90;;;;;;5073156;28;20215;-65
2021/11/04 08:39:25;;;;;;;0.80;0.60;;;6.40;99.90;;;;;;5073504;28;20187;-67
2021/11/04 08:41:54;;;;;;;1.80;1.70;;;6.40;99.90;;;;;;5073440;28;20188;-67
2021/11/04 08:44:22;;;;;;;2.58;2.35;;;6.40;99.90;;;;;;5073483;28;20218;-67
2021/11/04 08:46:51;;;;;;;6.05;1.77;;;6.40;99.90;;;;;;5072810;28;20192;-68
2021/11/04 08:49:20;;;;;;;4.40;2.80;;;6.40;99.90;;;;;;5073540;28;20188;-65
2021/11/04 08:51:48;;;;;;;3.25;1.30;;;6.30;99.90;;;;;;5073448;28;20653;-68
2021/11/04 08:54:16;;;;;;;5.22;2.95;;;6.30;99.90;;;;;;5072984;28;20587;-67
2021/11/04 08:56:44;;;;;;;1.00;0.90;;;6.30;99.90;;;;;;5079530;28;20187;-66
2021/11/04 08:59:13;;;;;;;3.40;3.10;;;6.40;99.90;;;;;;5078926;28;20179;-67
2021/11/04 09:01:43;;;;;;;7.22;1.73;;;6.40;99.90;;;;;;5083886;28;20191;-68
2021/11/04 09:04:13;;;;;;;1.13;0.85;;;6.30;99.90;;;;;;5074664;28;20659;-65
2021/11/04 09:06:42;;;;;;;1.35;1.25;;;6.30;99.90;;;;;;5074383;28;20275;-66
2021/11/04 09:09:12;;;;;;;1.98;1.33;;;6.30;99.90;;;;;;5082447;28;20233;-68
2021/11/04 09:11:40;;;;;;;2.40;2.03;;;6.30;99.90;;;;;;5083237;28;20410;-65
2021/11/04 09:14:12;;;;;;;5.10;2.15;;;6.30;99.90;;;;;;5076751;28;20179;-66
2021/11/04 09:16:42;;;;;;;2.33;1.42;;;6.30;99.90;;;;;;5083121;28;20218;-67
2021/11/04 09:19:10;;;;;;;0.80;0.60;;;6.30;99.90;;;;;;5090737;28;20263;-63
2021/11/04 09:21:40;;;;;;;1.55;1.45;;;6.30;99.90;;;;;;5100611;28;20182;-67
2021/11/04 09:24:09;;;;;;;7.95;2.85;;;6.30;99.90;;;;;;5084904;28;20192;-66
2021/11/04 09:26:37;;;;;;;2.95;1.70;;;6.30;99.90;;;;;;5097420;28;20199;-67
2021/11/04 09:29:06;;;;;;;2.45;1.25;;;6.40;99.90;;;;;;5101610;28;20246;-65
2021/11/04 09:31:35;;;;;;;4.22;1.85;;;6.40;99.90;;;;;;5099799;28;20206;-65
2021/11/04 09:34:03;;;;;;;4.97;2.55;;;6.40;99.90;;;;;;5090775;28;20565;-67
2021/11/04 09:36:33;;;;;;;1.42;1.33;;;6.40;99.90;;;;;;5075860;28;20196;-65
2021/11/04 09:39:04;;;;;;;1.90;1.13;;;6.30;99.90;;;;;;5075316;28;20196;-66
2021/11/04 09:41:33;;;;;;;4.03;0.95;;;6.30;99.90;;;;;;5092546;28;20733;-66
2021/11/04 09:44:03;;;;;;;2.25;2.15;;;6.30;99.90;;;;;;5095801;28;20204;-67
2021/11/04 09:46:35;;;;;;;1.25;1.13;;;6.30;99.90;;;;;;5095972;28;20177;-64
2021/11/04 09:49:03;;;;;;;1.33;1.23;;;6.30;99.90;;;;;;5095401;28;20187;-65
2021/11/04 09:51:31;;;;;;;0.90;0.70;;;6.20;99.90;;;;;;5091784;28;20211;-68
2021/11/04 09:54:00;;;;;;;2.03;1.83;;;6.20;99.90;;;;;;5090396;28;20233;-67
2021/11/04 09:56:30;;;;;;;1.30;1.05;;;6.20;99.90;;;;;;5077453;28;20195;-65
2021/11/04 09:58:58;;;;;;;2.78;1.45;;;6.20;99.90;;;;;;5073679;28;20242;-66
2021/11/04 10:01:28;;;;;;;1.60;0.70;;;6.20;99.90;;;;;;5078828;28;20199;-64
2021/11/04 10:03:59;;;;;;;0.80;0.60;;;6.10;99.90;;;;;;5088385;28;20248;-63
2021/11/04 10:06:29;;;;;;;1.55;1.40;;;6.10;99.90;;;;;;5095136;28;20191;-64
2021/11/04 10:09:00;;;;;;;0.85;0.65;;;6.10;99.90;;;;;;5095483;28;20187;-64
2021/11/04 10:11:33;;;;;;;1.48;1.10;;;6.10;99.90;;;;;;5090690;28;20294;-66
2021/11/04 10:14:03;;;;;;;1.58;1.17;;;6.10;99.90;;;;;;5075132;28;20218;-65
2021/11/04 10:16:34;;;;;;;1.98;1.35;;;6.20;99.90;;;;;;5074998;28;20173;-66
2021/11/04 10:19:13;;;;;;;1.38;1.27;;;6.10;99.90;;;;;;5075247;28;20195;-63
2021/11/04 10:21:43;;;;;;;3.30;2.47;;;6.10;99.90;;;;;;5086013;28;20203;-66
2021/11/04 10:24:18;;;;;;;3.30;1.42;;;6.20;99.90;;;;;;5095405;28;20176;-65
2021/11/04 10:26:53;;;;;;;1.33;1.10;;;6.30;99.90;;;;;;5094300;28;20195;-64
2021/11/04 10:29:21;;;;;;;0.80;0.60;;;6.20;99.90;;;;;;5086943;28;20274;-63
2021/11/04 10:31:53;;;;;;;3.22;1.90;;;6.20;99.90;;;;;;5074616;28;20680;-63
2021/11/04 10:34:26;;;;;;;0.90;0.68;;;6.20;99.90;;;;;;5074760;28;20271;-65
2021/11/04 10:36:56;;;;;;;1.33;1.20;;;6.20;99.90;;;;;;5074662;28;20207;-65
2021/11/04 10:39:27;;;;;;;1.23;1.13;;;6.20;99.90;;;;;;5074259;28;20165;-63
2021/11/04 10:41:57;;;;;;;3.60;2.67;;;6.20;99.90;;;;;;5074048;28;20253;-62
2021/11/04 10:44:30;;;;;;;1.15;0.95;;;6.30;99.90;;;;;;5075615;28;20195;-61
2021/11/04 10:46:59;;;;;;;0.80;0.50;;;6.30;99.90;;;;;;5073675;28;20228;-66
2021/11/04 10:49:29;;;;;;;0.93;0.75;;;6.20;99.90;;;;;;5073695;28;20249;-68
2021/11/04 10:51:58;;;;;;;5.40;2.35;;;6.30;99.90;;;;;;5086919;28;20203;-66
2021/11/04 10:54:26;;;;;;;1.40;1.30;;;6.20;99.90;;;;;;5080019;28;20191;-66
2021/11/04 10:56:56;;;;;;;3.00;1.25;;;6.20;99.90;;;;;;5072401;28;20215;-66
2021/11/04 10:59:25;;;;;;;6.25;1.77;;;6.20;99.90;;;;;;5073678;28;20207;-64
2021/11/04 11:01:55;;;;;;;1.23;0.93;;;6.20;99.90;;;;;;5081084;28;20667;-64
2021/11/04 11:04:26;;;;;;;2.35;2.15;;;6.20;99.90;;;;;;5085871;28;20184;-66
2021/11/04 11:06:56;;;;;;;1.10;0.80;;;6.20;99.90;;;;;;5077090;28;20188;-65
2021/11/04 11:09:26;;;;;;;1.98;1.88;;;6.20;99.90;;;;;;5077896;28;20187;-64
2021/11/04 11:11:58;;;;;;;3.20;1.42;;;6.20;99.90;;;;;;5085185;28;20207;-65
2021/11/04 11:14:28;;;;;;;1.00;0.60;;;6.20;99.90;;;;;;5074330;28;20222;-62
2021/11/04 11:16:58;;;;;;;1.10;1.00;;;6.20;99.90;;;;;;5073947;28;20177;-64
2021/11/04 11:19:28;;;;;;;0.90;0.70;;;6.20;99.90;;;;;;5082645;28;20204;-64
2021/11/04 11:21:58;;;;;;;0.80;0.70;;;6.20;99.90;;;;;;5077881;28;20176;-66
2021/11/04 11:24:32;;;;;;;0.80;0.50;;;6.20;99.90;;;;;;5073323;28;20180;-65
2021/11/04 11:27:03;;;;;;;0.80;0.50;;;6.20;99.90;;;;;;5078056;28;20230;-64
2021/11/04 11:29:34;;;;;;;2.22;1.20;;;6.20;99.90;;;;;;5080591;28;20196;-62
2021/11/04 11:32:20;;;;;;;0.90;0.50;;;6.20;99.90;;;;;;5082543;28;20315;-67
2021/11/04 11:35:13;;;;;;;1.08;0.98;;;6.20;99.90;;;;;;5084814;28;20195;-65
2021/11/04 11:38:00;;;;;;;1.17;0.73;;;6.20;99.90;;;;;;5080886;28;20184;-64
2021/11/04 11:40:30;;;;;;;0.80;0.50;;;6.30;99.90;;;;;;5080644;28;20187;-64
2021/11/04 11:43:04;;;;;;;1.15;0.80;;;6.30;99.90;;;;;;5079756;28;20221;-69
2021/11/04 11:45:34;;;;;;;0.80;0.50;;;6.30;99.90;;;;;;5072685;28;20232;-66
2021/11/04 11:48:17;;;;;;;1.15;0.80;;;6.20;99.90;;;;;;5072475;28;20208;-64
2021/11/04 11:50:46;;;;;;;0.80;0.50;;;6.30;99.90;;;;;;5072865;28;20211;-67
2021/11/04 11:53:23;;;;;;;1.55;0.85;;;6.30;99.90;;;;;;5072421;28;20214;-67
2021/11/04 11:55:54;;;;;;;3.42;1.42;;;6.30;99.90;;;;;;5072696;28;20195;-69
2021/11/04 11:58:34;;;;;;;0.80;0.50;;;6.30;99.90;;;;;;5073128;28;20581;-67
2021/11/04 12:01:09;;;;;;;0.80;0.50;;;6.30;99.90;;;;;;5074490;28;20580;-68
2021/11/04 12:03:55;;;;;;;0.80;0.50;;;6.20;99.90;;;;;;5093876;28;20313;-67
2021/11/04 12:06:51;;;;;;;1.02;0.93;;;6.30;99.90;;;;;;5093860;28;20183;-66
2021/11/04 12:09:40;;;;;;;1.13;1.02;;;6.30;99.90;;;;;;5094093;28;20179;-66
2021/11/04 12:12:29;;;;;;;1.25;0.80;;;6.30;99.90;;;;;;5095565;28;20241;-68
2021/11/04 12:15:04;;;;;;;0.80;0.50;;;6.40;99.90;;;;;;5096483;28;20219;-65
2021/11/04 12:17:32;;;;;;;0.90;0.60;;;6.40;99.90;;;;;;5095850;28;20194;-69
2021/11/04 12:20:01;;;;;;;1.50;1.08;;;6.40;99.90;;;;;;5095393;28;20195;-68
2021/11/04 12:22:41;;;;;;;1.00;0.60;;;6.40;99.90;;;;;;5096113;28;20443;-67
2021/11/04 12:25:12;;;;;;;0.80;0.52;;;6.40;99.90;;;;;;5096406;28;20187;-67
2021/11/04 12:27:42;;;;;;;0.80;0.50;;;6.40;99.90;;;;;;5096058;28;20191;-67
2021/11/04 12:30:23;;;;;;;2.45;1.13;;;6.50;99.90;;;;;;5097053;28;20187;-67
2021/11/04 12:32:59;;;;;;;0.80;0.57;;;6.50;99.90;;;;;;5096561;28;20219;-67
2021/11/04 12:35:41;;;;;;;0.80;0.50;;;6.50;99.90;;;;;;5093476;28;20191;-67
2021/11/04 12:38:09;;;;;;;0.80;0.50;;;6.60;99.90;;;;;;5093703;28;20211;-66
2021/11/04 12:40:37;;;;;;;1.00;0.70;;;6.60;99.90;;;;;;5093742;28;20171;-67
2021/11/04 12:43:08;;;;;;;0.80;0.50;;;6.60;99.90;;;;;;5089754;28;20215;-66
2021/11/04 12:45:43;;;;;;;0.80;0.50;;;6.50;99.90;;;;;;5094701;28;20244;-67
2021/11/04 12:48:12;;;;;;;0.80;0.50;;;6.50;99.90;;;;;;5095176;28;20197;-65
2021/11/04 12:50:56;;;;;;;0.80;0.60;;;6.50;99.90;;;;;;5101512;28;20167;-68
2021/11/04 12:53:25;;;;;;;0.90;0.60;;;6.50;99.90;;;;;;5102575;28;20238;-67
2021/11/04 12:55:53;;;;;;;2.08;1.38;;;6.50;99.90;;;;;;5100996;28;20237;-67
2021/11/04 12:58:21;;;;;;;0.80;0.50;;;6.60;99.90;;;;;;5101600;28;20181;-67
2021/11/04 13:01:01;;;;;;;0.80;0.60;;;6.60;99.90;;;;;;5099121;28;20187;-65
2021/11/04 13:03:34;;;;;;;1.60;1.50;;;6.60;99.90;;;;;;5101651;28;20211;-67
2021/11/04 13:06:08;;;;;;;0.90;0.70;;;6.60;99.90;;;;;;5100229;28;20175;-67
2021/11/04 13:08:37;;;;;;;0.80;0.50;;;6.60;99.90;;;;;;5100145;28;20186;-67
2021/11/04 13:11:13;;;;;;;0.80;0.50;;;6.60;99.90;;;;;;5100008;28;20195;-66
2021/11/04 13:13:51;;;;;;;0.80;0.50;;;6.60;99.90;;;;;;5100222;28;20218;-66